This is the latest recevied weather packets stored in our database for station/object EA5JZL-10. If no packets are shown the sender has not sent any weather packets the latest 10 day(s).
| Time | Temp. | Humidity | Pressure | Rain* | Wind** | Luminosity | Snow |
|---|---|---|---|---|---|---|---|
| 1777636497 | 22.22° C | 65% | 1021.6 hPa | - | - | - | - |
| 1777634697 | 22.22° C | 65% | 1021.9 hPa | - | - | - | - |
| 1777632897 | 22.22° C | 64% | 1022.1 hPa | - | - | - | - |
| 1777631096 | 22.22° C | 66% | 1022.3 hPa | - | - | - | - |
| 1777591294 | 23.89° C | 55% | 1019.7 hPa | - | - | - | - |
| 1777589493 | 23.89° C | 56% | 1019.3 hPa | - | - | - | - |
| 1777587693 | 23.89° C | 55% | 1019.2 hPa | - | - | - | - |
| 1777585893 | 23.89° C | 55% | 1018.9 hPa | - | - | - | - |
| 1777584092 | 23.33° C | 56% | 1018.7 hPa | - | - | - | - |
| 1777582331 | 23.89° C | 55% | 1018.3 hPa | - | - | - | - |
| 1777582292 | 23.89° C | 55% | 1018.3 hPa | - | - | - | - |
| 1777580531 | 23.89° C | 55% | 1017.9 hPa | - | - | - | - |
| 1777580492 | 23.89° C | 55% | 1017.9 hPa | - | - | - | - |
| 1777578692 | 23.89° C | 55% | 1017.3 hPa | - | - | - | - |
| 1777576892 | 23.89° C | 55% | 1016.8 hPa | - | - | - | - |
| 1777575092 | 24.44° C | 54% | 1016.2 hPa | - | - | - | - |
| 1777573291 | 25° C | 53% | 1015.4 hPa | - | - | - | - |
| 1777571530 | 24.44° C | 53% | 1015.1 hPa | - | - | - | - |
| 1777571491 | 24.44° C | 53% | 1015.1 hPa | - | - | - | - |
| 1777569691 | 25° C | 51% | 1014.9 hPa | - | - | - | - |
| 1777567891 | 25° C | 50% | 1014.6 hPa | - | - | - | - |
| 1777566091 | 25° C | 50% | 1014.5 hPa | - | - | - | - |
| 1777564290 | 23.89° C | 52% | 1014.5 hPa | - | - | - | - |
| 1777562490 | 24.44° C | 51% | 1014.4 hPa | - | - | - | - |
| 1777560690 | 23.89° C | 51% | 1014.3 hPa | - | - | - | - |
* Rain since midnight (hover to see other rain measurements)
** Current wind speed in m/s (hover to see current wind gust speed)